createdAt,value
2018-11-10T00:02:40.373Z,95.10
2018-11-10T00:05:46.209Z,95.10
2018-11-10T00:08:51.646Z,95.00
2018-11-10T00:11:58.565Z,95.10
2018-11-10T00:15:04.561Z,95.10
2018-11-10T00:18:10.105Z,95.30
2018-11-10T00:21:15.605Z,95.20
2018-11-10T00:24:21.168Z,95.30
2018-11-10T00:27:26.717Z,95.20
2018-11-10T00:30:32.310Z,95.20
2018-11-10T00:33:38.009Z,95.20
2018-11-10T00:36:44.022Z,95.30
2018-11-10T00:39:49.708Z,95.30
2018-11-10T00:42:55.490Z,95.20
2018-11-10T00:46:01.626Z,95.20
2018-11-10T00:49:07.354Z,95.20
2018-11-10T00:52:13.226Z,95.20
2018-11-10T00:55:18.743Z,95.20
2018-11-10T00:58:24.173Z,95.30
2018-11-10T01:01:30.581Z,95.30
2018-11-10T01:04:36.135Z,95.40
2018-11-10T01:07:42.012Z,95.10
2018-11-10T01:10:47.661Z,95.20
2018-11-10T01:13:53.222Z,95.20
2018-11-10T01:16:58.620Z,95.00
2018-11-10T01:20:04.138Z,95.40
2018-11-10T01:23:10.092Z,95.10
2018-11-10T01:26:15.558Z,95.00
2018-11-10T01:29:21.006Z,95.10
2018-11-10T01:32:26.403Z,95.00
2018-11-10T01:35:31.978Z,95.30
2018-11-10T01:38:37.424Z,95.70
2018-11-10T01:41:42.918Z,95.60
2018-11-10T01:44:48.357Z,95.40
2018-11-10T01:47:53.773Z,95.40
2018-11-10T01:50:59.210Z,95.20
2018-11-10T01:54:04.767Z,95.10
2018-11-10T01:57:10.161Z,95.30
2018-11-10T02:00:17.365Z,95.70
2018-11-10T02:03:22.818Z,95.70
2018-11-10T02:06:28.207Z,95.70
2018-11-10T02:09:33.618Z,95.40
2018-11-10T02:12:39.037Z,95.30
2018-11-10T02:15:44.475Z,95.50
2018-11-10T02:18:50.006Z,95.70
2018-11-10T02:21:55.481Z,95.50
2018-11-10T02:25:01.061Z,95.40
2018-11-10T02:28:06.694Z,95.40
2018-11-10T02:31:12.078Z,95.30
2018-11-10T02:34:17.570Z,95.30
2018-11-10T02:37:23.077Z,95.30
2018-11-10T02:40:28.597Z,95.50
2018-11-10T02:43:34.074Z,95.60
2018-11-10T02:46:39.485Z,95.50
2018-11-10T02:49:44.905Z,95.70
2018-11-10T02:52:50.364Z,95.60
2018-11-10T02:55:55.951Z,95.50
2018-11-10T02:59:01.398Z,95.40
2018-11-10T03:02:06.997Z,95.40
2018-11-10T03:05:12.587Z,95.30
2018-11-10T03:08:17.998Z,95.20
2018-11-10T03:11:23.515Z,95.20
2018-11-10T03:14:29.159Z,95.10
2018-11-10T03:17:34.645Z,95.10
2018-11-10T03:20:40.110Z,95.20
2018-11-10T03:23:45.582Z,95.10
2018-11-10T03:26:50.981Z,95.00
2018-11-10T03:29:56.459Z,94.90
2018-11-10T03:33:01.864Z,94.90
2018-11-10T03:36:07.476Z,95.00
2018-11-10T03:39:13.753Z,94.80
2018-11-10T03:42:19.227Z,94.80
2018-11-10T03:45:24.916Z,94.60
2018-11-10T03:48:30.373Z,94.60
2018-11-10T03:51:35.767Z,94.60
2018-11-10T03:54:41.202Z,94.70
2018-11-10T03:57:46.583Z,94.70
2018-11-10T04:00:52.123Z,94.80
2018-11-10T04:03:57.653Z,94.60
2018-11-10T04:07:03.094Z,94.60
2018-11-10T04:10:08.690Z,94.70
2018-11-10T04:13:14.093Z,95.00
2018-11-10T04:16:19.569Z,95.00
2018-11-10T04:19:25.034Z,94.80
2018-11-10T04:22:35.482Z,94.70
2018-11-10T04:25:41.639Z,94.70
2018-11-10T04:28:47.035Z,94.60
2018-11-10T04:31:52.409Z,94.60
2018-11-10T04:34:57.922Z,94.60
2018-11-10T04:38:03.425Z,94.60
2018-11-10T04:41:09.358Z,94.30
2018-11-10T04:44:14.835Z,94.40
2018-11-10T04:47:20.214Z,94.20
2018-11-10T04:50:25.610Z,94.30
2018-11-10T04:53:31.081Z,94.30
2018-11-10T04:56:36.505Z,94.30
2018-11-10T04:59:41.887Z,94.20
2018-11-10T05:02:47.261Z,94.40
2018-11-10T05:05:53.089Z,94.40
2018-11-10T05:08:59.038Z,94.30
2018-11-10T05:12:04.548Z,94.40
2018-11-10T05:15:11.564Z,94.40
2018-11-10T05:18:16.920Z,94.40
2018-11-10T05:21:22.469Z,94.30
2018-11-10T05:24:28.399Z,94.20
2018-11-10T05:27:33.984Z,94.30
2018-11-10T05:30:39.442Z,94.40
2018-11-10T05:33:45.391Z,94.50
2018-11-10T05:36:50.934Z,94.40
2018-11-10T05:39:56.537Z,94.20
2018-11-10T05:43:01.973Z,94.00
2018-11-10T05:46:07.737Z,93.90
2018-11-10T05:49:13.197Z,94.10
2018-11-10T05:52:18.569Z,94.20
2018-11-10T05:55:24.022Z,94.40
2018-11-10T05:58:29.390Z,94.40
2018-11-10T06:01:34.825Z,94.20
2018-11-10T06:04:40.241Z,94.20
2018-11-10T06:07:45.687Z,94.00
2018-11-10T06:10:51.049Z,94.00
2018-11-10T06:13:56.515Z,94.00
2018-11-10T06:17:01.906Z,94.00
2018-11-10T06:20:09.342Z,94.50
2018-11-10T06:23:14.753Z,95.40
2018-11-10T06:26:20.126Z,95.70
2018-11-10T06:29:25.698Z,95.80
2018-11-10T06:32:31.203Z,95.70
2018-11-10T06:35:36.799Z,95.80
2018-11-10T06:38:42.218Z,96.10
2018-11-10T06:41:47.582Z,96.50
2018-11-10T06:44:53.052Z,96.80
2018-11-10T06:47:58.456Z,96.80
2018-11-10T06:51:03.831Z,96.90
2018-11-10T06:54:09.335Z,96.50
2018-11-10T06:57:14.766Z,96.60
2018-11-10T07:00:20.178Z,97.00
2018-11-10T07:03:25.662Z,97.60
2018-11-10T07:06:31.210Z,97.40
2018-11-10T07:09:36.629Z,97.20
2018-11-10T07:12:42.186Z,97.00
2018-11-10T07:15:47.628Z,97.20
2018-11-10T07:18:53.019Z,97.20
2018-11-10T07:21:58.369Z,96.70
2018-11-10T07:25:04.265Z,96.60
2018-11-10T07:28:09.743Z,96.50
2018-11-10T07:31:15.665Z,96.30
2018-11-10T07:34:21.269Z,96.20
2018-11-10T07:37:26.677Z,96.00
2018-11-10T07:40:32.207Z,95.90
2018-11-10T07:43:37.669Z,96.00
2018-11-10T07:46:43.042Z,96.00
2018-11-10T07:49:48.454Z,95.70
2018-11-10T07:52:53.809Z,95.40
2018-11-10T07:55:59.382Z,95.40
2018-11-10T07:59:05.146Z,95.30
2018-11-10T08:02:10.559Z,95.20
2018-11-10T08:05:16.554Z,95.10
2018-11-10T08:08:22.205Z,95.20
2018-11-10T08:11:27.594Z,95.30
2018-11-10T08:14:33.008Z,95.10
2018-11-10T08:17:38.544Z,94.80
2018-11-10T08:20:43.934Z,94.50
2018-11-10T08:23:49.574Z,94.50
2018-11-10T08:26:57.087Z,94.40
2018-11-10T08:30:02.571Z,94.00
2018-11-10T08:33:08.813Z,94.00
2018-11-10T08:36:14.233Z,93.80
2018-11-10T08:39:19.709Z,94.20
2018-11-10T08:42:25.289Z,93.80
2018-11-10T08:45:30.777Z,93.80
2018-11-10T08:48:36.194Z,93.70
2018-11-10T08:51:41.635Z,93.70
2018-11-10T08:54:47.366Z,93.70
2018-11-10T08:57:52.774Z,93.70
2018-11-10T09:00:58.222Z,93.40
2018-11-10T09:04:03.663Z,93.30
2018-11-10T09:07:09.706Z,93.20
2018-11-10T09:10:15.478Z,93.30
2018-11-10T09:13:20.974Z,93.10
2018-11-10T09:16:28.334Z,93.60
2018-11-10T09:19:34.139Z,93.00
2018-11-10T09:22:39.546Z,92.90
2018-11-10T09:25:45.077Z,93.20
2018-11-10T09:28:50.664Z,93.20
2018-11-10T09:31:56.205Z,93.10
2018-11-10T09:35:02.223Z,93.30
2018-11-10T09:38:08.661Z,93.10
2018-11-10T09:41:16.562Z,93.20
2018-11-10T09:44:22.535Z,93.30
2018-11-10T09:47:28.122Z,93.30
2018-11-10T09:50:33.648Z,93.20
2018-11-10T09:53:39.348Z,93.60
2018-11-10T09:56:46.616Z,93.70
2018-11-10T09:59:55.003Z,94.00
2018-11-10T10:03:00.488Z,93.90
2018-11-10T10:06:06.266Z,94.20
2018-11-10T10:09:12.418Z,93.90
2018-11-10T10:12:18.012Z,94.00
2018-11-10T10:15:23.699Z,93.80
2018-11-10T10:18:29.361Z,93.50
2018-11-10T10:21:35.143Z,93.50
2018-11-10T10:24:41.034Z,93.70
2018-11-10T10:27:48.103Z,93.60
2018-11-10T10:30:53.809Z,93.40
2018-11-10T10:33:59.664Z,93.20
2018-11-10T10:37:05.595Z,93.20
2018-11-10T10:40:12.873Z,92.80
2018-11-10T10:43:18.894Z,92.60
2018-11-10T10:46:24.529Z,92.80
2018-11-10T10:49:29.999Z,92.30
2018-11-10T10:52:35.526Z,92.40
2018-11-10T10:55:41.087Z,91.80
2018-11-10T10:58:46.532Z,91.50
2018-11-10T11:02:57.817Z,91.20
2018-11-10T11:06:03.575Z,91.00
2018-11-10T11:09:09.935Z,91.20
2018-11-10T11:12:15.726Z,90.70
2018-11-10T11:15:22.080Z,90.50
2018-11-10T11:18:27.790Z,90.20
2018-11-10T11:21:33.225Z,90.30
2018-11-10T11:24:39.004Z,90.10
2018-11-10T11:27:44.604Z,89.90
2018-11-10T11:30:50.254Z,90.00
2018-11-10T11:33:55.891Z,89.50
2018-11-10T11:37:01.458Z,90.00
2018-11-10T11:40:09.551Z,89.10
2018-11-10T11:43:15.165Z,89.00
2018-11-10T11:46:20.670Z,88.60
2018-11-10T11:49:26.445Z,87.90
2018-11-10T11:52:44.314Z,87.60
2018-11-10T11:55:50.411Z,86.60
2018-11-10T11:58:58.300Z,86.40
2018-11-10T12:02:04.137Z,86.00
2018-11-10T12:05:11.961Z,86.10
2018-11-10T12:08:17.499Z,85.90
2018-11-10T12:11:23.787Z,85.70
2018-11-10T12:14:29.486Z,86.40
2018-11-10T12:17:35.227Z,87.10
2018-11-10T12:20:40.754Z,87.80
2018-11-10T12:23:46.549Z,88.10
2018-11-10T12:26:52.121Z,87.60
2018-11-10T12:29:57.777Z,87.90
2018-11-10T12:33:03.198Z,88.70
2018-11-10T12:36:08.857Z,88.10
2018-11-10T12:39:14.476Z,88.50
2018-11-10T12:42:20.014Z,88.90
2018-11-10T12:45:25.680Z,88.40
2018-11-10T12:48:31.151Z,88.80
2018-11-10T12:51:36.710Z,89.40
2018-11-10T12:54:42.408Z,89.80
2018-11-10T12:57:48.250Z,90.40
2018-11-10T13:00:54.129Z,91.20
2018-11-10T13:04:00.040Z,91.70
2018-11-10T13:07:05.757Z,91.50
2018-11-10T13:10:12.018Z,91.00
2018-11-10T13:13:17.627Z,91.40
2018-11-10T13:16:23.183Z,91.20
2018-11-10T13:19:28.794Z,91.50
2018-11-10T13:22:34.281Z,91.40
2018-11-10T13:25:39.726Z,91.00
2018-11-10T13:28:45.290Z,91.10
2018-11-10T13:31:50.810Z,91.60
2018-11-10T13:34:56.530Z,91.60
2018-11-10T13:38:02.185Z,91.80
2018-11-10T13:41:07.794Z,91.60
2018-11-10T13:44:13.406Z,92.00
2018-11-10T13:47:18.959Z,91.80
2018-11-10T13:50:24.381Z,92.60
2018-11-10T13:53:29.798Z,92.40
2018-11-10T13:56:35.208Z,92.50
2018-11-10T13:59:40.737Z,92.70
2018-11-10T14:02:46.150Z,92.90
2018-11-10T14:05:51.610Z,93.00
2018-11-10T14:08:57.605Z,93.00
2018-11-10T14:12:03.381Z,93.20
2018-11-10T14:15:09.446Z,93.00
2018-11-10T14:18:14.982Z,92.90
2018-11-10T14:21:20.378Z,92.90
2018-11-10T14:24:25.858Z,93.20
2018-11-10T14:27:31.359Z,93.10
2018-11-10T14:30:36.734Z,93.20
2018-11-10T14:33:42.211Z,93.20
2018-11-10T14:36:47.594Z,93.30
2018-11-10T14:39:52.978Z,93.40
2018-11-10T14:42:58.374Z,93.60
2018-11-10T14:46:03.891Z,93.60
2018-11-10T14:49:09.337Z,93.60
2018-11-10T14:52:14.735Z,93.70
2018-11-10T14:55:20.266Z,93.80
2018-11-10T14:58:25.726Z,93.80
2018-11-10T15:01:32.706Z,93.70
2018-11-10T15:04:38.270Z,94.00
2018-11-10T15:07:44.314Z,93.80
2018-11-10T15:10:49.725Z,93.90
2018-11-10T15:13:55.362Z,93.90
2018-11-10T15:17:00.758Z,94.30
2018-11-10T15:20:07.714Z,94.70
2018-11-10T15:23:13.161Z,94.70
2018-11-10T15:26:18.558Z,94.80
2018-11-10T15:29:23.954Z,95.30
2018-11-10T15:32:29.310Z,95.40
2018-11-10T15:35:34.801Z,95.30
2018-11-10T15:38:40.402Z,96.10
2018-11-10T15:41:45.773Z,95.80
2018-11-10T15:44:51.303Z,96.30
2018-11-10T15:47:56.870Z,95.70
2018-11-10T15:51:02.314Z,95.70
2018-11-10T15:54:07.934Z,95.70
2018-11-10T15:57:13.473Z,95.60
2018-11-10T16:00:20.042Z,95.30
2018-11-10T16:03:25.949Z,95.50
2018-11-10T16:06:31.909Z,95.60
2018-11-10T16:09:37.544Z,95.50
2018-11-10T16:12:43.178Z,95.90
2018-11-10T16:15:48.850Z,95.70
2018-11-10T16:18:54.349Z,95.70
2018-11-10T16:22:01.503Z,95.90
2018-11-10T16:25:08.979Z,95.70
2018-11-10T16:28:14.446Z,95.50
2018-11-10T16:31:19.948Z,95.70
2018-11-10T16:34:25.502Z,95.70
2018-11-10T16:37:32.992Z,95.60
2018-11-10T16:40:38.467Z,95.90
2018-11-10T16:43:46.555Z,96.20
2018-11-10T16:46:52.046Z,96.40
2018-11-10T16:49:57.741Z,96.40
2018-11-10T16:53:03.590Z,96.40
2018-11-10T16:56:09.502Z,96.10
2018-11-10T16:59:16.565Z,96.10
2018-11-10T17:02:22.140Z,96.30
2018-11-10T17:05:27.702Z,96.00
2018-11-10T17:08:33.184Z,95.90
2018-11-10T17:11:39.218Z,95.80
2018-11-10T17:14:46.114Z,95.60
2018-11-10T17:20:54.165Z,95.80
2018-11-10T17:24:00.371Z,95.50
2018-11-10T17:27:06.685Z,95.50
2018-11-10T17:30:19.111Z,95.50
2018-11-10T17:33:25.715Z,95.50
2018-11-10T17:36:31.361Z,95.40
2018-11-10T17:39:36.947Z,95.40
2018-11-10T17:42:42.834Z,95.40
2018-11-10T17:45:48.650Z,95.50
2018-11-10T17:48:54.358Z,95.20
2018-11-10T17:51:59.929Z,95.30
2018-11-10T17:55:07.155Z,95.30
2018-11-10T17:58:16.680Z,95.30
2018-11-10T18:01:24.472Z,95.20
2018-11-10T18:04:30.192Z,95.30
2018-11-10T18:07:35.742Z,95.20
2018-11-10T18:10:41.257Z,95.30
2018-11-10T18:13:46.782Z,95.50
2018-11-10T18:16:52.427Z,95.30
2018-11-10T18:19:59.279Z,95.30
2018-11-10T18:23:07.533Z,95.30
2018-11-10T18:26:15.594Z,95.10
2018-11-10T18:29:21.344Z,95.00
2018-11-10T18:32:26.965Z,94.90
2018-11-10T18:35:35.197Z,95.10
2018-11-10T18:38:42.584Z,95.20
2018-11-10T18:41:48.333Z,95.10
2018-11-10T18:45:07.463Z,95.30
2018-11-10T18:48:15.038Z,95.30
2018-11-10T18:51:21.452Z,94.90
2018-11-10T18:54:26.990Z,95.00
2018-11-10T18:57:32.538Z,94.90
2018-11-10T19:00:37.974Z,94.90
2018-11-10T19:03:43.507Z,95.10
2018-11-10T19:06:49.253Z,95.10
2018-11-10T19:09:54.718Z,94.90
2018-11-10T19:13:00.269Z,95.10
2018-11-10T19:16:06.173Z,95.10
2018-11-10T19:19:11.625Z,94.90
2018-11-10T19:22:17.099Z,94.80
2018-11-10T19:25:22.562Z,94.90
2018-11-10T19:28:28.071Z,94.70
2018-11-10T19:31:33.539Z,94.70
2018-11-10T19:34:40.214Z,94.70
2018-11-10T19:37:46.226Z,94.80
2018-11-10T19:40:51.656Z,94.70
2018-11-10T19:43:57.094Z,94.70
2018-11-10T19:47:02.495Z,94.70
2018-11-10T19:50:08.352Z,94.70
2018-11-10T19:53:14.194Z,94.70
2018-11-10T19:56:19.632Z,94.60
2018-11-10T19:59:25.092Z,94.60
2018-11-10T20:02:30.485Z,94.70
2018-11-10T20:05:35.971Z,94.80
2018-11-10T20:08:41.672Z,94.60
2018-11-10T20:11:58.899Z,94.80
2018-11-10T20:15:06.319Z,94.80
2018-11-10T20:18:15.044Z,94.80
2018-11-10T20:21:21.581Z,94.80
2018-11-10T20:24:27.090Z,94.70
2018-11-10T20:27:32.610Z,94.80
2018-11-10T20:30:38.053Z,94.70
2018-11-10T20:33:43.582Z,94.80
2018-11-10T20:36:49.249Z,94.90
2018-11-10T20:39:54.675Z,94.90
2018-11-10T20:43:00.595Z,94.90
2018-11-10T20:46:07.027Z,94.90
2018-11-10T20:49:12.545Z,95.00
2018-11-10T20:52:17.940Z,95.00
2018-11-10T20:55:23.428Z,94.90
2018-11-10T20:58:28.848Z,94.80
2018-11-10T21:01:34.259Z,94.70
2018-11-10T21:04:40.118Z,94.60
2018-11-10T21:07:45.804Z,94.70
2018-11-10T21:10:51.203Z,94.60
2018-11-10T21:13:56.662Z,94.70
2018-11-10T21:17:02.075Z,94.80
2018-11-10T21:20:09.271Z,94.50
2018-11-10T21:23:14.902Z,94.50
2018-11-10T21:26:20.304Z,94.40
2018-11-10T21:29:25.751Z,94.30
2018-11-10T21:32:31.341Z,94.20
2018-11-10T21:35:36.994Z,94.20
2018-11-10T21:38:42.500Z,94.20
2018-11-10T21:41:47.946Z,94.40
2018-11-10T21:44:53.422Z,94.10
2018-11-10T21:47:58.766Z,94.10
2018-11-10T21:51:04.159Z,94.10
2018-11-10T21:54:09.702Z,94.10
2018-11-10T21:57:15.131Z,93.80
2018-11-10T22:00:21.878Z,93.80
2018-11-10T22:03:27.378Z,93.70
2018-11-10T22:06:32.958Z,93.70
2018-11-10T22:09:38.394Z,93.50
2018-11-10T22:12:44.617Z,93.60
2018-11-10T22:15:50.313Z,93.60
2018-11-10T22:18:55.878Z,93.50
2018-11-10T22:22:01.348Z,93.30
2018-11-10T22:25:08.995Z,93.30
2018-11-10T22:28:14.358Z,93.10
2018-11-10T22:31:19.868Z,93.20
2018-11-10T22:34:25.362Z,93.10
2018-11-10T22:37:30.810Z,93.20
2018-11-10T22:40:36.249Z,93.10
2018-11-10T22:43:41.954Z,93.10
2018-11-10T22:46:47.363Z,93.20
2018-11-10T22:49:53.065Z,93.20
2018-11-10T22:52:58.494Z,93.20
2018-11-10T22:56:03.998Z,93.00
2018-11-10T22:59:09.522Z,93.10
2018-11-10T23:02:14.925Z,93.30
2018-11-10T23:05:20.930Z,93.30
2018-11-10T23:08:26.285Z,93.10
2018-11-10T23:11:31.694Z,93.00
2018-11-10T23:14:37.181Z,93.00
2018-11-10T23:17:42.914Z,92.90
2018-11-10T23:20:48.285Z,92.80
2018-11-10T23:23:53.750Z,92.90
2018-11-10T23:26:59.108Z,92.80
2018-11-10T23:30:04.590Z,92.90
2018-11-10T23:33:09.974Z,92.80
2018-11-10T23:36:15.429Z,92.80
2018-11-10T23:39:20.802Z,92.80
2018-11-10T23:42:26.186Z,92.70
2018-11-10T23:45:31.669Z,92.60
2018-11-10T23:48:37.054Z,92.40
2018-11-10T23:51:42.394Z,92.30
2018-11-10T23:54:47.799Z,92.30
2018-11-10T23:57:53.186Z,92.30
